Time;durP1;ratioP1;P1;durP2;ratioP2;P2;SDS_P1;SDS_P2;PMS_P1;PMS_P2;Temp;Humidity;BMP_temperature;BMP_pressure;BME280_temperature;BME280_humidity;BME280_pressure;Samples;Min_cycle;Max_cycle;Signal;HPM_P1;HPM_P2
2023/08/27 00:01:45;;;;;;;2.10;1.88;;;11.40;99.90;;;;;;5069805;28;20051;-57
2023/08/27 00:04:13;;;;;;;8.02;1.90;;;11.30;99.90;;;;;;5055003;28;20480;-57
2023/08/27 00:06:41;;;;;;;2.33;1.67;;;11.30;99.90;;;;;;5041291;28;20044;-57
2023/08/27 00:09:09;;;;;;;2.28;1.30;;;11.30;99.90;;;;;;5058437;28;20056;-57
2023/08/27 00:11:36;;;;;;;2.17;1.58;;;11.20;99.90;;;;;;5069898;28;20424;-57
2023/08/27 00:14:04;;;;;;;2.90;1.50;;;11.20;99.90;;;;;;5047005;28;20259;-57
2023/08/27 00:16:32;;;;;;;5.07;1.80;;;11.10;99.90;;;;;;5049332;28;20052;-57
2023/08/27 00:19:00;;;;;;;1.42;1.33;;;11.10;99.90;;;;;;5048176;28;20052;-58
2023/08/27 00:21:28;;;;;;;4.03;1.45;;;11.10;99.90;;;;;;5047739;28;20056;-57
2023/08/27 00:23:55;;;;;;;3.97;1.67;;;11.00;99.90;;;;;;5041644;28;20542;-57
2023/08/27 00:26:23;;;;;;;2.42;1.40;;;11.00;99.90;;;;;;5046007;28;20056;-57
2023/08/27 00:28:51;;;;;;;2.38;1.42;;;11.00;99.90;;;;;;5051596;28;20400;-57
2023/08/27 00:31:18;;;;;;;3.05;1.40;;;10.90;99.90;;;;;;5069419;28;20396;-57
2023/08/27 00:33:46;;;;;;;5.97;1.58;;;10.90;99.90;;;;;;5068798;28;20083;-57
2023/08/27 00:36:14;;;;;;;4.70;1.40;;;10.90;99.90;;;;;;5066365;28;20045;-58
2023/08/27 00:38:41;;;;;;;2.67;1.92;;;10.90;99.90;;;;;;5053895;28;20480;-58
2023/08/27 00:41:09;;;;;;;2.92;1.50;;;10.80;99.90;;;;;;5068115;28;20040;-58
2023/08/27 00:43:37;;;;;;;4.40;1.40;;;10.80;99.90;;;;;;5056001;28;20037;-58
2023/08/27 00:46:06;;;;;;;2.50;1.38;;;10.80;99.90;;;;;;5047707;28;20045;-58
2023/08/27 00:48:34;;;;;;;1.52;1.30;;;10.80;99.90;;;;;;5047515;28;20049;-59
2023/08/27 00:51:03;;;;;;;3.17;1.48;;;10.80;99.90;;;;;;5049138;28;20045;-61
2023/08/27 00:53:32;;;;;;;3.05;1.48;;;10.80;99.90;;;;;;5048902;28;20070;-59
2023/08/27 00:56:00;;;;;;;3.58;1.40;;;10.80;99.90;;;;;;5047738;28;20049;-59
2023/08/27 00:58:28;;;;;;;2.13;1.33;;;10.70;99.90;;;;;;5052588;28;20049;-60
2023/08/27 01:00:59;;;;;;;1.40;1.30;;;10.70;99.90;;;;;;5067115;28;20063;-60
2023/08/27 01:03:27;;;;;;;4.05;1.50;;;10.70;99.90;;;;;;5056988;28;20488;-59
2023/08/27 01:05:56;;;;;;;2.38;1.60;;;10.60;99.90;;;;;;5045784;28;20049;-59
2023/08/27 01:08:54;;;;;;;3.40;1.50;;;10.60;99.90;;;;;;5034554;28;20045;-59
2023/08/27 01:11:34;;;;;;;1.67;1.58;;;10.60;99.90;;;;;;5067405;28;20404;-58
2023/08/27 01:14:05;;;;;;;10.23;1.80;;;10.60;99.90;;;;;;5052955;28;20380;-58
2023/08/27 01:16:35;;;;;;;4.53;2.00;;;10.50;99.90;;;;;;5047389;28;20040;-58
2023/08/27 01:19:12;;;;;;;3.22;1.70;;;10.50;99.90;;;;;;5057178;28;20037;-58
2023/08/27 01:21:41;;;;;;;6.28;2.35;;;10.50;99.90;;;;;;5067277;28;20052;-57
2023/08/27 01:24:10;;;;;;;3.30;1.95;;;10.50;99.90;;;;;;5052964;28;20400;-57
2023/08/27 01:26:45;;;;;;;3.88;1.90;;;10.40;99.90;;;;;;5047403;28;20045;-57
2023/08/27 01:29:41;;;;;;;4.20;1.60;;;10.40;99.90;;;;;;5057785;28;20052;-58
2023/08/27 01:32:39;;;;;;;1.83;1.63;;;10.40;99.90;;;;;;5042743;28;20371;-58
2023/08/27 01:35:10;;;;;;;2.35;2.00;;;10.40;99.90;;;;;;5030045;28;20064;-58
2023/08/27 01:37:38;;;;;;;3.95;1.60;;;10.30;99.90;;;;;;5043867;28;20480;-57
2023/08/27 01:40:06;;;;;;;2.38;1.83;;;10.30;99.90;;;;;;5066937;28;20040;-58
2023/08/27 01:42:35;;;;;;;5.32;1.65;;;10.30;99.90;;;;;;5058944;28;20049;-58
2023/08/27 01:45:07;;;;;;;3.50;1.80;;;10.30;99.90;;;;;;5031479;28;20049;-58
2023/08/27 01:47:36;;;;;;;3.47;1.60;;;10.20;99.90;;;;;;5032878;28;20049;-58
2023/08/27 01:50:05;;;;;;;1.40;1.30;;;10.20;99.90;;;;;;5050644;28;20049;-58
2023/08/27 01:52:35;;;;;;;2.47;1.42;;;10.20;99.90;;;;;;5049840;28;20037;-58
2023/08/27 01:55:04;;;;;;;1.73;1.52;;;10.20;99.90;;;;;;5050322;28;20500;-58
2023/08/27 01:57:32;;;;;;;3.47;1.80;;;10.20;99.90;;;;;;5049376;28;20048;-58
2023/08/27 02:00:00;;;;;;;4.38;1.83;;;10.10;99.90;;;;;;5050031;28;20048;-58
2023/08/27 02:02:41;;;;;;;3.78;1.60;;;10.10;99.90;;;;;;5051509;28;20045;-58
2023/08/27 02:05:09;;;;;;;1.35;1.25;;;10.10;99.90;;;;;;5049968;28;20044;-58
2023/08/27 02:07:38;;;;;;;3.05;1.55;;;10.00;99.90;;;;;;5039106;28;20041;-58
2023/08/27 02:10:07;;;;;;;2.38;1.52;;;10.00;99.90;;;;;;5064823;28;20053;-58
2023/08/27 02:12:35;;;;;;;4.63;1.80;;;10.00;99.90;;;;;;5071264;28;20063;-58
2023/08/27 02:15:06;;;;;;;3.33;1.88;;;10.00;99.90;;;;;;5070847;28;20049;-58
2023/08/27 02:17:35;;;;;;;2.70;1.52;;;9.90;99.90;;;;;;5058748;28;20048;-58
2023/08/27 02:20:08;;;;;;;2.83;1.67;;;9.90;99.90;;;;;;5050079;28;20048;-58
2023/08/27 02:22:38;;;;;;;2.70;1.50;;;9.90;99.90;;;;;;5051232;28;20045;-58
2023/08/27 02:25:06;;;;;;;6.05;2.08;;;9.90;99.90;;;;;;5049928;28;20481;-58
2023/08/27 02:27:34;;;;;;;5.32;1.70;;;9.90;99.90;;;;;;5041020;28;20065;-58
2023/08/27 02:30:03;;;;;;;3.35;1.83;;;9.90;99.90;;;;;;5028916;28;20072;-57
2023/08/27 02:32:30;;;;;;;10.18;2.35;;;9.90;99.90;;;;;;5046457;28;20493;-58
2023/08/27 02:34:58;;;;;;;4.57;2.35;;;9.90;99.90;;;;;;5031168;28;20053;-58
2023/08/27 02:37:26;;;;;;;4.50;2.03;;;9.90;99.90;;;;;;5040526;28;20048;-58
2023/08/27 02:39:53;;;;;;;9.80;2.65;;;9.90;99.90;;;;;;5064686;28;20484;-58
2023/08/27 02:42:22;;;;;;;6.00;2.40;;;9.90;99.90;;;;;;5055334;28;20049;-58
2023/08/27 02:44:50;;;;;;;4.88;1.95;;;10.00;99.90;;;;;;5052763;28;20044;-58
2023/08/27 02:47:18;;;;;;;3.78;2.08;;;10.10;99.90;;;;;;5053238;28;20049;-58
2023/08/27 02:49:46;;;;;;;5.15;2.30;;;10.20;99.90;;;;;;5054613;28;20491;-58
2023/08/27 02:52:16;;;;;;;4.45;2.03;;;10.30;99.90;;;;;;5053651;28;20045;-58
2023/08/27 02:54:43;;;;;;;9.75;2.08;;;10.50;99.90;;;;;;5054639;28;20049;-58
2023/08/27 02:57:11;;;;;;;3.15;1.98;;;10.50;99.90;;;;;;5054358;28;20041;-58
2023/08/27 02:59:39;;;;;;;4.03;2.10;;;10.60;99.90;;;;;;5054177;28;20045;-58
2023/08/27 03:02:06;;;;;;;3.70;1.85;;;10.70;99.90;;;;;;5053472;28;20044;-58
2023/08/27 03:04:34;;;;;;;3.83;2.00;;;10.80;99.90;;;;;;5054438;28;20510;-58
2023/08/27 03:07:02;;;;;;;5.25;2.15;;;11.00;99.90;;;;;;5054503;28;20405;-58
2023/08/27 03:09:29;;;;;;;3.40;2.08;;;11.10;99.90;;;;;;5065850;28;20403;-58
2023/08/27 03:11:57;;;;;;;3.00;2.22;;;11.20;99.90;;;;;;5074329;28;20041;-58
2023/08/27 03:14:24;;;;;;;5.28;2.05;;;11.30;99.90;;;;;;5073061;28;20052;-58
2023/08/27 03:16:52;;;;;;;4.18;2.17;;;11.40;99.90;;;;;;5067126;28;20045;-58
2023/08/27 03:19:20;;;;;;;4.85;1.90;;;11.50;99.90;;;;;;5053139;28;20033;-58
2023/08/27 03:21:48;;;;;;;5.10;2.45;;;11.50;99.90;;;;;;5052542;28;20052;-57
2023/08/27 03:24:15;;;;;;;5.85;2.40;;;11.60;99.90;;;;;;5053078;28;20044;-58
2023/08/27 03:26:44;;;;;;;5.63;2.72;;;11.60;99.90;;;;;;5052885;28;20064;-59
2023/08/27 03:29:12;;;;;;;6.47;2.38;;;11.70;99.90;;;;;;5053628;28;20049;-58
2023/08/27 03:31:39;;;;;;;6.70;2.65;;;11.70;99.90;;;;;;5053918;28;20049;-58
2023/08/27 03:34:08;;;;;;;6.72;2.70;;;11.70;99.90;;;;;;5053008;28;20049;-58
2023/08/27 03:36:36;;;;;;;10.32;2.55;;;11.70;99.90;;;;;;5052811;28;20048;-58
2023/08/27 03:39:04;;;;;;;4.57;2.17;;;11.80;99.90;;;;;;5060525;28;20032;-58
2023/08/27 03:41:32;;;;;;;8.52;2.20;;;11.80;99.90;;;;;;5047430;28;20067;-57
2023/08/27 03:43:59;;;;;;;4.90;2.35;;;11.90;99.90;;;;;;5052249;28;20049;-59
2023/08/27 03:46:27;;;;;;;4.28;1.92;;;11.90;99.90;;;;;;5052568;28;20052;-58
2023/08/27 03:49:02;;;;;;;6.75;2.40;;;11.90;99.90;;;;;;5053892;28;20036;-58
2023/08/27 03:51:30;;;;;;;7.38;1.98;;;11.90;99.90;;;;;;5052844;28;20045;-62
2023/08/27 03:53:59;;;;;;;8.30;2.50;;;11.90;99.90;;;;;;5052429;28;20060;-58
2023/08/27 03:56:26;;;;;;;5.72;2.25;;;11.90;99.90;;;;;;5035369;28;20384;-58
2023/08/27 03:58:54;;;;;;;6.72;2.28;;;11.90;99.90;;;;;;5053377;28;20045;-58
2023/08/27 04:01:22;;;;;;;8.55;2.38;;;11.90;99.90;;;;;;5051941;28;20048;-58
2023/08/27 04:03:50;;;;;;;8.02;2.22;;;11.90;99.90;;;;;;5052236;28;20044;-58
2023/08/27 04:06:18;;;;;;;11.13;2.40;;;11.90;99.90;;;;;;5035555;28;20055;-58
2023/08/27 04:08:46;;;;;;;7.22;2.65;;;12.00;99.90;;;;;;5058815;28;20060;-58
2023/08/27 04:11:13;;;;;;;6.75;2.53;;;12.00;99.90;;;;;;5066544;28;20049;-58
2023/08/27 04:13:41;;;;;;;8.52;2.50;;;12.00;99.90;;;;;;5032442;28;20042;-58
2023/08/27 04:16:11;;;;;;;9.25;3.17;;;12.00;99.90;;;;;;5065004;28;20048;-58
2023/08/27 04:18:38;;;;;;;9.35;2.58;;;12.00;99.90;;;;;;5051254;28;20049;-58
2023/08/27 04:21:10;;;;;;;13.05;3.60;;;12.10;99.90;;;;;;5052060;28;20056;-58
2023/08/27 04:23:40;;;;;;;6.93;4.22;;;12.10;99.90;;;;;;5051883;28;20049;-58
2023/08/27 04:26:12;;;;;;;5.53;2.80;;;12.10;99.90;;;;;;5052910;28;20381;-58
2023/08/27 04:28:40;;;;;;;7.40;3.55;;;12.10;99.90;;;;;;5051613;28;20115;-58
2023/08/27 04:31:11;;;;;;;7.32;3.30;;;12.10;99.90;;;;;;5051442;28;20045;-58
2023/08/27 04:33:38;;;;;;;11.63;3.80;;;12.20;99.90;;;;;;5048295;28;20041;-58
2023/08/27 04:36:06;;;;;;;12.90;3.67;;;12.20;99.90;;;;;;5048812;28;20046;-58
2023/08/27 04:38:34;;;;;;;9.60;3.70;;;12.20;99.90;;;;;;5055650;28;20048;-58
2023/08/27 04:41:02;;;;;;;11.38;4.60;;;12.20;99.90;;;;;;5066954;28;20036;-58
2023/08/27 04:43:30;;;;;;;12.30;4.65;;;12.20;99.90;;;;;;5051257;28;20056;-58
2023/08/27 04:45:58;;;;;;;18.08;4.38;;;12.20;99.90;;;;;;5052105;28;20049;-58
2023/08/27 04:48:26;;;;;;;13.93;5.20;;;12.20;99.90;;;;;;5040002;28;20493;-58
2023/08/27 04:50:57;;;;;;;19.23;5.50;;;12.20;99.90;;;;;;5045274;28;20045;-58
2023/08/27 04:53:26;;;;;;;11.05;4.35;;;12.30;99.90;;;;;;5047550;28;20064;-58
2023/08/27 04:55:54;;;;;;;15.35;5.18;;;12.40;99.90;;;;;;5047609;28;20056;-58
2023/08/27 04:58:23;;;;;;;21.42;4.80;;;12.40;99.90;;;;;;5047237;28;20049;-58
2023/08/27 05:00:54;;;;;;;10.20;4.95;;;12.50;99.90;;;;;;5047288;28;20045;-58
2023/08/27 05:03:25;;;;;;;13.95;4.88;;;12.50;99.90;;;;;;5035129;28;20140;-58
2023/08/27 05:05:53;;;;;;;15.70;4.82;;;12.60;99.90;;;;;;5025362;28;20477;-58
2023/08/27 05:08:21;;;;;;;15.98;5.22;;;12.60;99.90;;;;;;5053411;28;20052;-61
2023/08/27 05:10:49;;;;;;;19.50;4.35;;;12.60;99.90;;;;;;5066774;28;20362;-57
2023/08/27 05:13:17;;;;;;;10.43;3.88;;;12.60;99.90;;;;;;5050642;28;20056;-58
2023/08/27 05:15:45;;;;;;;13.48;3.85;;;12.70;99.90;;;;;;5043987;28;20422;-58
2023/08/27 05:18:13;;;;;;;11.98;3.72;;;12.70;99.90;;;;;;5043301;28;20048;-58
2023/08/27 05:20:41;;;;;;;10.90;3.67;;;12.70;99.90;;;;;;5034905;28;20060;-58
2023/08/27 05:23:10;;;;;;;10.57;3.22;;;12.70;99.90;;;;;;5047125;28;20056;-58
2023/08/27 05:25:39;;;;;;;15.13;3.53;;;12.70;99.90;;;;;;5047971;28;20037;-56
2023/08/27 05:28:09;;;;;;;15.52;3.42;;;12.70;99.90;;;;;;5044250;28;20060;-58
2023/08/27 05:30:37;;;;;;;12.95;3.45;;;12.70;99.90;;;;;;5027959;28;20044;-57
2023/08/27 05:33:08;;;;;;;8.95;3.10;;;12.70;99.90;;;;;;5021669;28;20060;-57
2023/08/27 05:35:36;;;;;;;9.55;2.63;;;12.70;99.90;;;;;;5024953;28;20087;-57
2023/08/27 05:38:04;;;;;;;11.38;2.83;;;12.80;99.90;;;;;;5023392;28;20048;-57
2023/08/27 05:40:31;;;;;;;9.77;3.30;;;12.70;99.90;;;;;;5046602;28;20049;-58
2023/08/27 05:42:59;;;;;;;12.18;3.08;;;12.70;99.90;;;;;;5047456;28;20052;-59
2023/08/27 05:45:27;;;;;;;15.75;4.00;;;12.70;99.90;;;;;;5046689;28;20056;-58
2023/08/27 05:47:54;;;;;;;15.15;3.42;;;12.70;99.90;;;;;;5040050;28;20045;-57
2023/08/27 05:50:23;;;;;;;15.00;3.97;;;12.70;99.90;;;;;;5023684;28;20048;-58
2023/08/27 05:52:51;;;;;;;14.45;4.03;;;12.70;99.90;;;;;;5046157;28;20049;-58
2023/08/27 05:55:18;;;;;;;14.57;4.35;;;12.70;99.90;;;;;;5046689;28;20060;-57
2023/08/27 05:57:46;;;;;;;17.77;4.50;;;12.70;99.90;;;;;;5047690;28;20045;-57
2023/08/27 06:00:14;;;;;;;14.57;4.07;;;12.70;99.90;;;;;;5029804;28;20045;-58
2023/08/27 06:02:43;;;;;;;14.43;4.18;;;12.70;99.90;;;;;;5045961;28;20052;-58
2023/08/27 06:05:11;;;;;;;15.15;4.13;;;12.70;99.90;;;;;;5043746;28;20350;-58
2023/08/27 06:07:39;;;;;;;19.92;4.15;;;12.70;99.90;;;;;;5032761;28;20076;-58
2023/08/27 06:10:08;;;;;;;19.27;4.20;;;12.70;99.90;;;;;;5047070;28;20048;-58
2023/08/27 06:12:36;;;;;;;13.50;3.35;;;12.70;99.90;;;;;;5042718;28;20041;-58
2023/08/27 06:15:04;;;;;;;9.48;2.95;;;12.70;99.90;;;;;;5047789;28;20035;-58
2023/08/27 06:17:32;;;;;;;14.88;3.50;;;12.70;99.90;;;;;;5046858;28;20063;-58
2023/08/27 06:20:00;;;;;;;9.38;3.67;;;12.70;99.90;;;;;;5033622;28;20049;-58
2023/08/27 06:22:27;;;;;;;12.18;3.42;;;12.70;99.90;;;;;;5035354;28;20060;-58
2023/08/27 06:24:56;;;;;;;16.80;4.60;;;12.70;99.90;;;;;;5047199;28;20040;-58
2023/08/27 06:27:24;;;;;;;17.45;4.03;;;12.70;99.90;;;;;;5046704;28;20060;-57
2023/08/27 06:29:52;;;;;;;15.93;4.72;;;12.70;99.90;;;;;;5047254;28;20041;-58
2023/08/27 06:32:19;;;;;;;15.00;5.10;;;12.70;99.90;;;;;;5046986;28;20052;-58
2023/08/27 06:34:48;;;;;;;10.95;4.25;;;12.80;99.90;;;;;;5046640;28;20405;-58
2023/08/27 06:37:16;;;;;;;9.63;3.78;;;12.80;99.90;;;;;;5049390;28;20041;-58
2023/08/27 06:39:44;;;;;;;14.95;4.13;;;12.80;99.90;;;;;;5047369;28;20048;-58
2023/08/27 06:42:12;;;;;;;11.18;4.50;;;12.90;99.90;;;;;;5049816;28;20052;-57
2023/08/27 06:44:40;;;;;;;14.65;4.10;;;12.90;99.90;;;;;;5050270;28;20621;-58
2023/08/27 06:47:08;;;;;;;18.50;4.43;;;12.90;99.90;;;;;;5048070;28;20045;-57
2023/08/27 06:49:36;;;;;;;13.15;3.78;;;12.90;99.90;;;;;;5035211;28;20041;-58
2023/08/27 06:52:06;;;;;;;12.90;3.75;;;12.90;99.90;;;;;;5031877;28;20061;-58
2023/08/27 06:54:34;;;;;;;12.77;3.05;;;12.90;99.90;;;;;;5050156;28;20049;-58
2023/08/27 06:57:02;;;;;;;15.98;3.67;;;12.90;99.90;;;;;;5049921;28;20068;-58
2023/08/27 06:59:30;;;;;;;10.50;3.72;;;13.00;99.90;;;;;;5069136;28;20048;-58
2023/08/27 07:01:59;;;;;;;13.82;3.00;;;13.00;99.90;;;;;;5067171;28;20403;-58
2023/08/27 07:04:26;;;;;;;7.85;3.10;;;13.00;99.90;;;;;;5042233;28;20045;-58
2023/08/27 07:06:54;;;;;;;9.80;2.38;;;13.00;99.90;;;;;;5027128;28;20045;-58
2023/08/27 07:09:22;;;;;;;6.90;2.38;;;13.00;99.90;;;;;;5058549;28;20082;-58
2023/08/27 07:11:50;;;;;;;8.13;2.25;;;13.00;99.90;;;;;;5059949;28;20064;-58
2023/08/27 07:14:18;;;;;;;8.50;2.50;;;13.10;99.90;;;;;;5049710;28;20060;-58
2023/08/27 07:16:45;;;;;;;7.28;2.42;;;13.10;99.90;;;;;;5049713;28;20074;-58
2023/08/27 07:19:13;;;;;;;10.80;2.42;;;13.10;99.90;;;;;;5042712;28;20057;-57
2023/08/27 07:21:41;;;;;;;6.18;2.33;;;13.10;99.90;;;;;;5029824;28;20041;-58
2023/08/27 07:24:09;;;;;;;9.07;1.98;;;13.10;99.90;;;;;;5032632;28;20051;-57
2023/08/27 07:26:37;;;;;;;8.50;2.60;;;13.20;99.90;;;;;;5049066;28;20036;-58
2023/08/27 07:29:08;;;;;;;9.20;2.38;;;13.20;99.90;;;;;;5048733;28;20055;-58
2023/08/27 07:31:36;;;;;;;7.93;2.08;;;13.20;99.90;;;;;;5032964;28;20049;-57
2023/08/27 07:34:04;;;;;;;8.85;1.70;;;13.30;99.90;;;;;;5044471;28;20071;-57
2023/08/27 07:36:32;;;;;;;13.30;2.20;;;13.30;99.90;;;;;;5031649;28;20429;-58
2023/08/27 07:39:00;;;;;;;4.45;1.95;;;13.20;99.90;;;;;;5081044;28;20051;-58
2023/08/27 07:41:28;;;;;;;5.65;1.50;;;13.20;99.90;;;;;;5060986;28;20045;-58
2023/08/27 07:43:56;;;;;;;7.50;1.75;;;13.20;99.90;;;;;;5032490;28;20044;-59
2023/08/27 07:46:24;;;;;;;5.32;1.30;;;13.20;99.90;;;;;;5049184;28;20633;-58
2023/08/27 07:48:52;;;;;;;5.32;1.23;;;13.20;99.90;;;;;;5045428;28;20396;-59
2023/08/27 07:51:20;;;;;;;5.38;1.20;;;13.20;99.90;;;;;;5030405;28;20732;-58
2023/08/27 07:53:47;;;;;;;6.13;2.05;;;13.20;99.90;;;;;;5046458;28;20507;-58
2023/08/27 07:56:18;;;;;;;5.72;1.30;;;13.20;99.90;;;;;;5049037;28;20037;-57
2023/08/27 07:58:46;;;;;;;9.60;1.92;;;13.20;99.90;;;;;;5048682;28;20412;-58
2023/08/27 08:01:13;;;;;;;6.25;1.80;;;13.20;99.90;;;;;;5049497;28;20044;-58
2023/08/27 08:03:42;;;;;;;7.05;2.17;;;13.30;99.90;;;;;;5060535;28;20050;-57
2023/08/27 08:06:09;;;;;;;7.35;1.65;;;13.30;99.90;;;;;;5030103;28;20042;-58
2023/08/27 08:08:37;;;;;;;5.28;1.70;;;13.40;99.90;;;;;;5045799;28;20059;-58
2023/08/27 08:11:05;;;;;;;11.90;2.25;;;13.40;99.90;;;;;;5068587;28;20049;-58
2023/08/27 08:13:34;;;;;;;6.53;1.77;;;13.40;99.90;;;;;;5055309;28;20052;-58
2023/08/27 08:16:02;;;;;;;7.35;1.60;;;13.50;99.90;;;;;;5036150;28;20045;-58
2023/08/27 08:18:30;;;;;;;6.72;2.10;;;13.50;99.90;;;;;;5039487;28;20052;-58
2023/08/27 08:20:59;;;;;;;8.15;1.63;;;13.50;99.90;;;;;;5031661;28;20045;-58
2023/08/27 08:23:28;;;;;;;6.70;2.10;;;13.60;99.90;;;;;;5043162;28;20488;-58
2023/08/27 08:25:58;;;;;;;11.25;2.15;;;13.70;99.90;;;;;;5049600;28;20402;-58
2023/08/27 08:28:26;;;;;;;8.73;2.10;;;13.70;99.90;;;;;;5049542;28;20053;-58
2023/08/27 08:30:53;;;;;;;13.80;1.77;;;13.80;99.90;;;;;;5049561;28;20045;-58
2023/08/27 08:33:21;;;;;;;10.63;1.92;;;13.90;99.90;;;;;;5047911;28;20041;-59
2023/08/27 08:35:49;;;;;;;9.00;1.70;;;14.00;99.90;;;;;;5033103;28;20049;-59
2023/08/27 08:38:17;;;;;;;5.57;1.30;;;14.10;99.90;;;;;;5039545;28;20037;-59
2023/08/27 08:40:48;;;;;;;6.70;1.50;;;14.10;99.90;;;;;;5048621;28;20049;-59
2023/08/27 08:43:51;;;;;;;8.27;1.30;;;14.20;99.90;;;;;;5048245;28;20052;-59
2023/08/27 08:46:23;;;;;;;3.78;0.90;;;14.30;99.90;;;;;;5031390;28;20068;-60
2023/08/27 08:48:53;;;;;;;2.45;1.30;;;14.30;99.90;;;;;;5048614;28;20496;-58
2023/08/27 08:51:26;;;;;;;6.70;1.25;;;14.30;99.90;;;;;;5029575;28;20050;-59
2023/08/27 08:53:58;;;;;;;4.82;1.77;;;14.30;99.90;;;;;;5046191;28;20048;-59
2023/08/27 08:56:35;;;;;;;6.35;1.23;;;14.30;99.90;;;;;;5049235;28;20095;-59
2023/08/27 08:59:04;;;;;;;2.75;0.90;;;14.40;99.90;;;;;;5064119;28;20492;-59
2023/08/27 09:01:32;;;;;;;3.78;1.50;;;14.50;99.90;;;;;;5068601;28;20045;-59
2023/08/27 09:04:01;;;;;;;6.95;1.35;;;14.60;99.90;;;;;;5051274;28;20063;-59
2023/08/27 09:06:31;;;;;;;12.80;1.58;;;14.70;99.90;;;;;;5029091;28;20049;-59
2023/08/27 09:09:01;;;;;;;6.40;1.35;;;14.70;99.90;;;;;;5056564;28;20508;-59
2023/08/27 09:11:31;;;;;;;6.50;1.30;;;14.70;99.90;;;;;;5068862;28;20535;-59
2023/08/27 09:13:59;;;;;;;;;;;14.70;99.90;;;;;;5068630;28;20412;-59
2023/08/27 09:16:27;;;;;;;5.90;0.70;;;14.70;99.90;;;;;;5068488;28;20276;-59
2023/08/27 09:18:55;;;;;;;5.57;0.70;;;14.70;99.90;;;;;;5067036;28;20060;-59
2023/08/27 09:21:23;;;;;;;1.40;0.63;;;14.60;99.90;;;;;;5049271;28;20400;-60
2023/08/27 09:23:53;;;;;;;4.78;0.77;;;14.50;99.90;;;;;;5047256;28;20041;-59
2023/08/27 09:26:21;;;;;;;5.32;0.60;;;14.50;99.90;;;;;;5047248;28;20064;-59
2023/08/27 09:28:50;;;;;;;6.25;0.65;;;14.50;99.90;;;;;;5061729;28;20538;-59
2023/08/27 09:31:40;;;;;;;5.97;0.95;;;14.40;99.90;;;;;;5066935;28;20052;-60
2023/08/27 09:34:09;;;;;;;6.70;0.80;;;14.50;99.90;;;;;;5045758;28;20396;-59
2023/08/27 09:36:37;;;;;;;3.40;0.65;;;14.60;99.90;;;;;;5040517;28;20045;-59
2023/08/27 09:39:10;;;;;;;5.15;0.77;;;14.60;99.90;;;;;;5052779;28;20064;-59
2023/08/27 09:41:40;;;;;;;5.78;0.68;;;14.60;99.90;;;;;;5047013;28;20052;-59
2023/08/27 09:44:08;;;;;;;3.55;0.60;;;14.70;99.90;;;;;;5046437;28;20049;-59
2023/08/27 09:46:37;;;;;;;4.13;0.60;;;14.70;99.90;;;;;;5046741;28;20040;-59
2023/08/27 09:49:07;;;;;;;3.30;0.57;;;14.80;99.90;;;;;;5047895;28;20060;-59
2023/08/27 09:51:39;;;;;;;3.28;0.70;;;14.80;99.90;;;;;;5030520;28;20401;-59
2023/08/27 09:54:19;;;;;;;2.45;0.75;;;14.80;99.90;;;;;;5044982;28;20060;-59
2023/08/27 09:56:49;;;;;;;5.72;0.57;;;14.80;99.90;;;;;;5047805;28;20064;-59
2023/08/27 09:59:21;;;;;;;3.72;0.50;;;14.80;99.90;;;;;;5061300;28;20041;-59
2023/08/27 10:01:50;;;;;;;5.88;0.55;;;14.90;99.90;;;;;;5047932;28;20128;-59
2023/08/27 10:04:19;;;;;;;2.33;0.20;;;14.90;99.90;;;;;;5067639;28;20059;-59
2023/08/27 10:06:47;;;;;;;1.27;0.40;;;15.00;99.90;;;;;;5032369;28;20287;-59
2023/08/27 10:09:16;;;;;;;2.72;0.35;;;15.10;99.90;;;;;;5056017;28;20051;-59
2023/08/27 10:11:46;;;;;;;2.90;0.50;;;15.10;99.90;;;;;;5067822;28;20048;-59
2023/08/27 10:14:16;;;;;;;3.67;0.60;;;15.20;99.90;;;;;;5048210;28;20071;-59
2023/08/27 10:16:44;;;;;;;2.65;0.40;;;15.30;99.90;;;;;;5047800;28;20056;-59
2023/08/27 10:19:12;;;;;;;3.10;0.50;;;15.40;99.90;;;;;;5047638;28;20041;-59
2023/08/27 10:21:40;;;;;;;1.92;0.40;;;15.50;99.90;;;;;;5034168;28;20069;-59
2023/08/27 10:24:10;;;;;;;5.75;1.10;;;15.50;99.90;;;;;;5045147;28;20476;-59
2023/08/27 10:26:40;;;;;;;1.88;0.60;;;15.60;99.90;;;;;;5047814;28;20041;-59
2023/08/27 10:29:08;;;;;;;;;;;15.70;99.90;;;;;;5048062;28;20045;-60
2023/08/27 10:31:36;;;;;;;2.55;1.45;;;15.70;99.90;;;;;;5046504;28;19921;-60
2023/08/27 10:34:05;;;;;;;3.80;0.88;;;15.90;99.90;;;;;;5047574;28;20049;-59
2023/08/27 10:36:38;;;;;;;2.58;0.50;;;16.00;99.90;;;;;;5042193;28;20052;-59
2023/08/27 10:39:07;;;;;;;3.28;0.68;;;16.10;99.90;;;;;;5057290;28;20045;-59
2023/08/27 10:41:35;;;;;;;3.38;0.60;;;16.20;99.90;;;;;;5053955;28;20469;-59
2023/08/27 10:44:05;;;;;;;2.35;0.55;;;16.10;99.90;;;;;;5046080;28;20519;-59
2023/08/27 10:46:32;;;;;;;0.70;0.17;;;15.90;99.90;;;;;;5047307;28;20045;-59
2023/08/27 10:49:14;;;;;;;3.13;1.02;;;15.60;99.90;;;;;;5053925;28;20049;-59
2023/08/27 10:51:41;;;;;;;3.33;0.30;;;15.40;99.90;;;;;;5033680;28;20048;-59
2023/08/27 10:54:23;;;;;;;1.48;0.32;;;15.30;99.90;;;;;;5045850;28;20511;-59
2023/08/27 10:56:51;;;;;;;4.93;0.40;;;15.30;99.90;;;;;;5047647;28;20048;-59
2023/08/27 10:59:27;;;;;;;2.30;0.43;;;15.20;99.90;;;;;;5047187;28;20045;-59
2023/08/27 11:02:07;;;;;;;2.30;0.45;;;15.30;99.90;;;;;;5047371;28;20041;-59
2023/08/27 11:04:39;;;;;;;1.40;0.30;;;15.40;99.90;;;;;;5048671;28;20048;-60
2023/08/27 11:07:10;;;;;;;1.80;0.45;;;15.60;99.90;;;;;;5042246;28;20041;-59
2023/08/27 11:09:54;;;;;;;2.13;0.52;;;15.80;99.90;;;;;;5062918;28;20060;-59
2023/08/27 11:12:28;;;;;;;2.58;0.50;;;16.00;99.90;;;;;;5066958;28;20064;-59
2023/08/27 11:15:17;;;;;;;2.28;0.63;;;16.20;99.90;;;;;;5051133;28;20048;-59
2023/08/27 11:17:45;;;;;;;3.80;0.70;;;16.50;99.90;;;;;;5037291;28;20048;-59
2023/08/27 11:20:24;;;;;;;2.38;0.30;;;16.70;99.90;;;;;;5051243;28;20053;-59
2023/08/27 11:23:08;;;;;;;1.25;0.50;;;16.90;99.90;;;;;;5050359;28;20107;-59
2023/08/27 11:25:36;;;;;;;0.95;0.30;;;17.20;99.90;;;;;;5049603;28;20056;-59
2023/08/27 11:28:07;;;;;;;3.72;0.40;;;17.30;99.90;;;;;;5049287;28;20049;-59
2023/08/27 11:30:36;;;;;;;5.25;0.57;;;17.30;99.90;;;;;;5046851;28;20053;-60
2023/08/27 11:33:04;;;;;;;1.70;0.50;;;17.30;99.90;;;;;;5046847;28;20053;-60
2023/08/27 11:35:36;;;;;;;4.72;0.30;;;17.20;99.90;;;;;;5045785;28;20045;-59
2023/08/27 11:38:03;;;;;;;1.92;0.30;;;17.10;99.90;;;;;;5038699;28;20068;-60
2023/08/27 11:40:32;;;;;;;3.45;0.30;;;17.00;99.90;;;;;;5027566;28;20045;-59
2023/08/27 11:42:59;;;;;;;3.33;0.52;;;16.80;99.90;;;;;;5053865;28;20043;-59
2023/08/27 11:45:31;;;;;;;3.20;0.32;;;16.80;99.90;;;;;;5033699;28;20056;-61
2023/08/27 11:48:06;;;;;;;1.90;0.30;;;16.80;99.90;;;;;;5038929;28;20428;-60
2023/08/27 11:50:38;;;;;;;3.65;0.35;;;16.90;99.90;;;;;;5044891;28;20041;-59
2023/08/27 11:53:06;;;;;;;2.28;0.40;;;16.90;99.90;;;;;;5044736;28;20059;-59
2023/08/27 11:55:34;;;;;;;1.85;0.30;;;16.90;99.90;;;;;;5066488;28;20049;-60
2023/08/27 11:58:05;;;;;;;1.83;0.52;;;16.90;99.90;;;;;;5064834;28;20040;-59
2023/08/27 12:00:33;;;;;;;0.40;0.40;;;16.90;99.90;;;;;;5066469;28;20484;-59
2023/08/27 12:03:01;;;;;;;5.88;0.68;;;16.90;99.90;;;;;;5057236;28;20052;-59
2023/08/27 12:05:30;;;;;;;4.95;0.60;;;16.80;99.90;;;;;;5044674;28;20049;-59
2023/08/27 12:08:07;;;;;;;3.28;0.38;;;16.90;99.90;;;;;;5036403;28;20033;-59
2023/08/27 12:10:54;;;;;;;4.15;0.60;;;16.90;99.90;;;;;;5064886;28;20056;-60
2023/08/27 12:13:22;;;;;;;2.75;0.55;;;16.80;99.90;;;;;;5064093;28;20044;-59
2023/08/27 12:15:53;;;;;;;2.03;0.32;;;16.70;99.90;;;;;;5063428;28;20048;-59
2023/08/27 12:18:33;;;;;;;2.10;0.43;;;16.60;99.90;;;;;;5063420;28;20059;-59
2023/08/27 12:21:06;;;;;;;1.73;0.50;;;16.40;99.90;;;;;;5049495;28;20053;-59
2023/08/27 12:23:37;;;;;;;2.88;0.60;;;16.30;99.90;;;;;;5039046;28;20048;-59
2023/08/27 12:26:05;;;;;;;0.63;0.30;;;16.10;99.90;;;;;;5046279;28;20057;-59
2023/08/27 12:28:33;;;;;;;1.55;0.38;;;16.00;99.90;;;;;;5046091;28;20056;-59
2023/08/27 12:31:01;;;;;;;2.80;0.93;;;15.90;99.90;;;;;;5046287;28;20075;-59
2023/08/27 12:33:41;;;;;;;1.75;0.40;;;15.80;99.90;;;;;;5044619;28;20064;-59
2023/08/27 12:36:09;;;;;;;1.20;0.65;;;15.70;99.90;;;;;;5044017;28;20044;-59
2023/08/27 12:38:37;;;;;;;7.15;0.80;;;15.60;99.90;;;;;;5039829;28;20052;-59
2023/08/27 12:41:04;;;;;;;2.58;0.47;;;15.60;99.90;;;;;;5060065;28;20052;-59
2023/08/27 12:43:32;;;;;;;3.00;0.50;;;15.60;99.90;;;;;;5035767;28;20539;-59
2023/08/27 12:46:00;;;;;;;3.40;0.57;;;15.50;99.90;;;;;;5038557;28;20041;-59
2023/08/27 12:48:27;;;;;;;4.40;0.70;;;15.40;99.90;;;;;;5044224;28;20045;-59
2023/08/27 12:50:55;;;;;;;5.90;0.52;;;15.40;99.90;;;;;;5045510;28;20061;-59
2023/08/27 12:53:23;;;;;;;3.53;0.60;;;15.40;99.90;;;;;;5037257;28;20045;-59
2023/08/27 12:55:51;;;;;;;2.47;0.63;;;15.40;99.90;;;;;;5045899;28;20219;-59
2023/08/27 12:58:19;;;;;;;2.65;0.60;;;15.40;99.90;;;;;;5045430;28;20045;-59